Terminal Aerodrome Forecast
Issued by NWS

Home | Current Version | Previous Version | Graphics & Text | Print | Product List | Glossary On
Versions: 1 2 3 4 5 6 7 8 9 10 11 12 13
000
FTUS43 KFGF 292300 RRA
TAFBJI
TAF
KBJI 292342Z 3000/3024 30011KT P6SM BKN015
     FM300200 VRB05KT P6SM SCT250
     FM301800 17008KT P6SM BKN100=

USA.gov is the U.S. government's official web portal to all federal, state and local government web resources and services.